EXS9FB LGPZ-EGBB
Flight info
| Callsign | EXS9FB |
|---|---|
| Flight time | N/A |
| Altitude | 38000 |
| Route | MALED UA14 KRK UL53 OLGAT DCT AIOSA DCT UMSON DCT PEVAL DCT SOTOV P66 KPT L608 TEDGO DCT ADENU L608 DENUT L610 HEMEL |
| Aircraft | A21N/M-SDE2E3FGHIJ1RWXY/LB1 |
Departure
| Time | N/A |
|---|---|
| Airport | Aktion National Airport (LGPZ) |
Arrival
| Time | 2026-05-07 17:06 |
|---|---|
| Airport | Birmingham Airport (EGBB) |
| Time | Latitude | Longitude | Altitude | Speed | Heading |
|---|---|---|---|---|---|
| 2026-05-07 13:03 | 40.10806 | 19.17265 | 38069 ft | 363 kts | 311° |
| 2026-05-07 13:04 | 40.14431 | 19.12705 | 38067 ft | 364 kts | 311° |
| 2026-05-07 13:04 | 40.18065 | 19.08115 | 38078 ft | 365 kts | 311° |
| 2026-05-07 13:05 | 40.21735 | 19.03463 | 38071 ft | 369 kts | 311° |
| 2026-05-07 13:05 | 40.25536 | 18.98915 | 38068 ft | 373 kts | 316° |
| 2026-05-07 13:06 | 40.29741 | 18.94672 | 38076 ft | 389 kts | 316° |
| 2026-05-07 13:06 | 40.34084 | 18.90305 | 38071 ft | 395 kts | 316° |
| 2026-05-07 13:07 | 40.38448 | 18.85904 | 38067 ft | 395 kts | 316° |
| 2026-05-07 13:07 | 40.42800 | 18.81497 | 38091 ft | 395 kts | 316° |
| 2026-05-07 13:08 | 40.47202 | 18.77021 | 38072 ft | 403 kts | 315° |
| 2026-05-07 13:08 | 40.51619 | 18.72533 | 38073 ft | 401 kts | 316° |
| 2026-05-07 13:09 | 40.56011 | 18.68078 | 38073 ft | 401 kts | 316° |
| 2026-05-07 13:09 | 40.60422 | 18.63582 | 38064 ft | 401 kts | 316° |
| 2026-05-07 13:10 | 40.64834 | 18.59072 | 38072 ft | 401 kts | 316° |
| 2026-05-07 13:10 | 40.69244 | 18.54556 | 38086 ft | 404 kts | 316° |
| 2026-05-07 13:11 | 40.73721 | 18.49965 | 38072 ft | 409 kts | 316° |
| 2026-05-07 13:11 | 40.78218 | 18.45349 | 38077 ft | 409 kts | 316° |
| 2026-05-07 13:12 | 40.82714 | 18.40721 | 38073 ft | 410 kts | 316° |
| 2026-05-07 13:12 | 40.87186 | 18.36124 | 38064 ft | 410 kts | 316° |
| 2026-05-07 13:13 | 40.91677 | 18.31488 | 38066 ft | 409 kts | 316° |
| 2026-05-07 13:13 | 40.96186 | 18.26825 | 38072 ft | 413 kts | 316° |
| 2026-05-07 13:14 | 41.00718 | 18.22126 | 38071 ft | 414 kts | 316° |
| 2026-05-07 13:14 | 41.05251 | 18.17425 | 38071 ft | 414 kts | 316° |
| 2026-05-07 13:15 | 41.09782 | 18.12724 | 38069 ft | 414 kts | 316° |
| 2026-05-07 13:15 | 41.14307 | 18.08012 | 38068 ft | 413 kts | 316° |
| 2026-05-07 13:16 | 41.18828 | 18.03290 | 38086 ft | 415 kts | 316° |
| 2026-05-07 13:16 | 41.23382 | 17.98531 | 38069 ft | 418 kts | 316° |
| 2026-05-07 13:17 | 41.27922 | 17.93774 | 38067 ft | 418 kts | 316° |
| 2026-05-07 13:17 | 41.32487 | 17.88986 | 38068 ft | 418 kts | 316° |
| 2026-05-07 13:18 | 41.37051 | 17.84189 | 38057 ft | 418 kts | 316° |
| 2026-05-07 13:18 | 41.41618 | 17.79385 | 38065 ft | 418 kts | 316° |
| 2026-05-07 13:19 | 41.46179 | 17.74573 | 38062 ft | 418 kts | 316° |
| 2026-05-07 13:19 | 41.50692 | 17.69779 | 38059 ft | 417 kts | 316° |
| 2026-05-07 13:20 | 41.55237 | 17.64953 | 38054 ft | 417 kts | 316° |
| 2026-05-07 13:20 | 41.59792 | 17.60130 | 38048 ft | 417 kts | 316° |
| 2026-05-07 13:21 | 41.64348 | 17.55319 | 38047 ft | 417 kts | 316° |
| 2026-05-07 13:21 | 41.68900 | 17.50481 | 38063 ft | 420 kts | 316° |
| 2026-05-07 13:22 | 41.73480 | 17.45588 | 38050 ft | 421 kts | 316° |
| 2026-05-07 13:22 | 41.77290 | 17.41513 | 38047 ft | 421 kts | 316° |
| 2026-05-07 13:23 | 41.81864 | 17.36602 | 38048 ft | 420 kts | 315° |
| 2026-05-07 13:23 | 41.87171 | 17.30911 | 38048 ft | 420 kts | 316° |
| 2026-05-07 13:24 | 41.91002 | 17.26808 | 38048 ft | 420 kts | 315° |
| 2026-05-07 13:24 | 41.95547 | 17.21881 | 38053 ft | 423 kts | 315° |
| 2026-05-07 13:25 | 42.00100 | 17.16869 | 38043 ft | 423 kts | 315° |
| 2026-05-07 13:25 | 42.04660 | 17.11851 | 38043 ft | 423 kts | 315° |
| 2026-05-07 13:26 | 42.09219 | 17.06821 | 38044 ft | 423 kts | 315° |
| 2026-05-07 13:26 | 42.13773 | 17.01790 | 38038 ft | 423 kts | 315° |
| 2026-05-07 13:27 | 42.18325 | 16.96750 | 38051 ft | 424 kts | 315° |
| 2026-05-07 13:27 | 42.22859 | 16.91717 | 38041 ft | 425 kts | 315° |
| 2026-05-07 13:28 | 42.27427 | 16.86639 | 38039 ft | 425 kts | 315° |
| 2026-05-07 13:28 | 42.31994 | 16.81548 | 38039 ft | 425 kts | 315° |
| 2026-05-07 13:29 | 42.36556 | 16.76464 | 38035 ft | 425 kts | 315° |
| 2026-05-07 13:29 | 42.41126 | 16.71355 | 38051 ft | 427 kts | 315° |
| 2026-05-07 13:30 | 42.45682 | 16.66244 | 38048 ft | 428 kts | 315° |
| 2026-05-07 13:30 | 42.50266 | 16.61082 | 38040 ft | 427 kts | 314° |
| 2026-05-07 13:31 | 42.54839 | 16.55918 | 38041 ft | 427 kts | 315° |
| 2026-05-07 13:31 | 42.59419 | 16.50775 | 38042 ft | 428 kts | 315° |
| 2026-05-07 13:32 | 42.63997 | 16.45622 | 38073 ft | 428 kts | 315° |
| 2026-05-07 13:32 | 42.68574 | 16.40439 | 38045 ft | 428 kts | 315° |
| 2026-05-07 13:33 | 42.73149 | 16.35244 | 38049 ft | 429 kts | 315° |
| 2026-05-07 13:33 | 42.77694 | 16.30077 | 38041 ft | 428 kts | 314° |
| 2026-05-07 13:34 | 42.84557 | 16.22271 | 38045 ft | 428 kts | 314° |
| 2026-05-07 13:35 | 42.89126 | 16.17058 | 38056 ft | 429 kts | 314° |
| 2026-05-07 13:35 | 42.93709 | 16.11820 | 38041 ft | 430 kts | 314° |
| 2026-05-07 13:36 | 42.98287 | 16.06565 | 38031 ft | 430 kts | 314° |
| 2026-05-07 13:36 | 43.02867 | 16.01305 | 38034 ft | 430 kts | 314° |
| 2026-05-07 13:37 | 43.07445 | 15.96042 | 38038 ft | 431 kts | 314° |
| 2026-05-07 13:37 | 43.12018 | 15.90782 | 38040 ft | 432 kts | 314° |
| 2026-05-07 13:38 | 43.16617 | 15.85460 | 38028 ft | 433 kts | 314° |
| 2026-05-07 13:38 | 43.21226 | 15.80126 | 38027 ft | 433 kts | 314° |
| 2026-05-07 13:39 | 43.25828 | 15.74781 | 38018 ft | 433 kts | 314° |
| 2026-05-07 13:39 | 43.30439 | 15.69424 | 38017 ft | 434 kts | 314° |
| 2026-05-07 13:40 | 43.35041 | 15.64066 | 38055 ft | 435 kts | 314° |
| 2026-05-07 13:40 | 43.39636 | 15.58706 | 38021 ft | 436 kts | 313° |
| 2026-05-07 13:41 | 43.44262 | 15.53295 | 38014 ft | 437 kts | 314° |
| 2026-05-07 13:41 | 43.48888 | 15.47871 | 38014 ft | 437 kts | 313° |
| 2026-05-07 13:42 | 43.53510 | 15.42441 | 38012 ft | 437 kts | 313° |
| 2026-05-07 13:42 | 43.58134 | 15.36999 | 38025 ft | 437 kts | 314° |
| 2026-05-07 13:43 | 43.62763 | 15.31539 | 38007 ft | 438 kts | 313° |
| 2026-05-07 13:43 | 43.67393 | 15.26065 | 38021 ft | 438 kts | 313° |
| 2026-05-07 13:44 | 43.72022 | 15.20589 | 38014 ft | 437 kts | 313° |
| 2026-05-07 13:44 | 43.76606 | 15.15142 | 38013 ft | 437 kts | 313° |
| 2026-05-07 13:45 | 43.81219 | 15.09653 | 38013 ft | 437 kts | 313° |
| 2026-05-07 13:45 | 43.85838 | 15.04156 | 38017 ft | 437 kts | 313° |
| 2026-05-07 13:46 | 43.90449 | 14.98647 | 38018 ft | 437 kts | 313° |
| 2026-05-07 13:46 | 43.95058 | 14.93128 | 38020 ft | 437 kts | 313° |
| 2026-05-07 13:47 | 43.99672 | 14.87602 | 38019 ft | 438 kts | 313° |
| 2026-05-07 13:47 | 44.04277 | 14.82057 | 38024 ft | 439 kts | 313° |
| 2026-05-07 13:48 | 44.08867 | 14.76523 | 38017 ft | 439 kts | 313° |
| 2026-05-07 13:48 | 44.13493 | 14.70941 | 38018 ft | 439 kts | 313° |
| 2026-05-07 13:49 | 44.18108 | 14.65358 | 38012 ft | 439 kts | 313° |
| 2026-05-07 13:49 | 44.22722 | 14.59773 | 38015 ft | 439 kts | 313° |
| 2026-05-07 13:50 | 44.27340 | 14.54164 | 38018 ft | 440 kts | 313° |
| 2026-05-07 13:50 | 44.31957 | 14.48549 | 38012 ft | 440 kts | 313° |
| 2026-05-07 13:51 | 44.36542 | 14.42961 | 38010 ft | 440 kts | 313° |
| 2026-05-07 13:51 | 44.41154 | 14.37334 | 38012 ft | 440 kts | 313° |
| 2026-05-07 13:52 | 44.45757 | 14.31695 | 38020 ft | 439 kts | 313° |
| 2026-05-07 13:52 | 44.50354 | 14.26041 | 38021 ft | 439 kts | 313° |
| 2026-05-07 13:53 | 44.54943 | 14.20400 | 38015 ft | 439 kts | 313° |
| 2026-05-07 13:53 | 44.59529 | 14.14744 | 38010 ft | 439 kts | 313° |
| 2026-05-07 13:54 | 44.64077 | 14.09119 | 38028 ft | 439 kts | 312° |
| 2026-05-07 13:54 | 44.68656 | 14.03441 | 38020 ft | 439 kts | 312° |
| 2026-05-07 13:55 | 44.73240 | 13.97750 | 38023 ft | 439 kts | 312° |
| 2026-05-07 13:55 | 44.77824 | 13.92053 | 38025 ft | 439 kts | 312° |
| 2026-05-07 13:56 | 44.82403 | 13.86346 | 38021 ft | 439 kts | 312° |
| 2026-05-07 13:56 | 44.86973 | 13.80631 | 38031 ft | 440 kts | 312° |
| 2026-05-07 13:57 | 44.91569 | 13.74872 | 38025 ft | 442 kts | 312° |
| 2026-05-07 13:57 | 44.96168 | 13.69093 | 38024 ft | 443 kts | 312° |
| 2026-05-07 13:58 | 45.00777 | 13.63297 | 38003 ft | 444 kts | 312° |
| 2026-05-07 13:58 | 45.05386 | 13.57487 | 37998 ft | 443 kts | 312° |
| 2026-05-07 13:59 | 45.09986 | 13.51669 | 38023 ft | 443 kts | 312° |
| 2026-05-07 13:59 | 45.14577 | 13.45839 | 37996 ft | 443 kts | 312° |
| 2026-05-07 14:00 | 45.19174 | 13.40006 | 38004 ft | 444 kts | 312° |
| 2026-05-07 14:00 | 45.23743 | 13.34189 | 37991 ft | 444 kts | 312° |
| 2026-05-07 14:01 | 45.28346 | 13.28324 | 37996 ft | 444 kts | 312° |
| 2026-05-07 14:01 | 45.32994 | 13.22528 | 38026 ft | 445 kts | 314° |
| 2026-05-07 14:02 | 45.37727 | 13.16848 | 38008 ft | 445 kts | 314° |
| 2026-05-07 14:02 | 45.42448 | 13.11163 | 38016 ft | 445 kts | 314° |
| 2026-05-07 14:03 | 45.47176 | 13.05458 | 38017 ft | 446 kts | 314° |
| 2026-05-07 14:03 | 45.51905 | 12.99745 | 37999 ft | 446 kts | 314° |
| 2026-05-07 14:04 | 45.56636 | 12.94014 | 38021 ft | 446 kts | 314° |
| 2026-05-07 14:04 | 45.61355 | 12.88280 | 37997 ft | 446 kts | 314° |
| 2026-05-07 14:05 | 45.66077 | 12.82534 | 37992 ft | 447 kts | 314° |
| 2026-05-07 14:05 | 45.70813 | 12.76756 | 37995 ft | 448 kts | 314° |
| 2026-05-07 14:06 | 45.75519 | 12.71001 | 38000 ft | 448 kts | 314° |
| 2026-05-07 14:06 | 45.80250 | 12.65204 | 37987 ft | 448 kts | 314° |
| 2026-05-07 14:07 | 45.84978 | 12.59396 | 37966 ft | 448 kts | 314° |
| 2026-05-07 14:07 | 45.89710 | 12.53569 | 37972 ft | 449 kts | 314° |
| 2026-05-07 14:08 | 45.94449 | 12.47716 | 37964 ft | 450 kts | 314° |
| 2026-05-07 14:08 | 45.99193 | 12.41848 | 37968 ft | 450 kts | 314° |
| 2026-05-07 14:09 | 46.03932 | 12.35970 | 37971 ft | 449 kts | 314° |
| 2026-05-07 14:09 | 46.07866 | 12.31083 | 37962 ft | 449 kts | 314° |
| 2026-05-07 14:10 | 46.12594 | 12.25193 | 37970 ft | 449 kts | 314° |
| 2026-05-07 14:10 | 46.18114 | 12.18300 | 37970 ft | 449 kts | 314° |
| 2026-05-07 14:11 | 46.22036 | 12.13391 | 37978 ft | 449 kts | 314° |
| 2026-05-07 14:11 | 46.26757 | 12.07470 | 37968 ft | 449 kts | 314° |
| 2026-05-07 14:12 | 46.31445 | 12.01577 | 37970 ft | 449 kts | 314° |
| 2026-05-07 14:12 | 46.36159 | 11.95637 | 37970 ft | 450 kts | 314° |
| 2026-05-07 14:13 | 46.41030 | 11.89888 | 37956 ft | 453 kts | 317° |
| 2026-05-07 14:13 | 46.46021 | 11.84305 | 37961 ft | 453 kts | 317° |
| 2026-05-07 14:14 | 46.50996 | 11.78688 | 37953 ft | 453 kts | 317° |
| 2026-05-07 14:14 | 46.55963 | 11.73052 | 37947 ft | 453 kts | 317° |
| 2026-05-07 14:15 | 46.60899 | 11.67443 | 37951 ft | 454 kts | 317° |
| 2026-05-07 14:15 | 46.65874 | 11.61773 | 37949 ft | 454 kts | 317° |
| 2026-05-07 14:16 | 46.70847 | 11.56096 | 37952 ft | 454 kts | 317° |
| 2026-05-07 14:16 | 46.75819 | 11.50401 | 37950 ft | 454 kts | 317° |
| 2026-05-07 14:17 | 46.80788 | 11.44699 | 37973 ft | 453 kts | 317° |
| 2026-05-07 14:17 | 46.85727 | 11.39012 | 37968 ft | 451 kts | 317° |
| 2026-05-07 14:18 | 46.90661 | 11.33325 | 37989 ft | 451 kts | 317° |
| 2026-05-07 14:18 | 46.95591 | 11.27624 | 37996 ft | 451 kts | 317° |
| 2026-05-07 14:19 | 47.00477 | 11.21962 | 38019 ft | 450 kts | 317° |
| 2026-05-07 14:19 | 47.05375 | 11.16270 | 37970 ft | 450 kts | 317° |
| 2026-05-07 14:20 | 47.10297 | 11.10533 | 37976 ft | 452 kts | 317° |
| 2026-05-07 14:20 | 47.15224 | 11.04790 | 37991 ft | 451 kts | 317° |
| 2026-05-07 14:21 | 47.19861 | 10.98644 | 37992 ft | 447 kts | 307° |
| 2026-05-07 14:21 | 47.23863 | 10.91671 | 37999 ft | 446 kts | 306° |
| 2026-05-07 14:22 | 47.27888 | 10.84705 | 38008 ft | 447 kts | 307° |
| 2026-05-07 14:22 | 47.31940 | 10.77745 | 38013 ft | 447 kts | 307° |
| 2026-05-07 14:23 | 47.35990 | 10.70777 | 38023 ft | 447 kts | 307° |
| 2026-05-07 14:23 | 47.40032 | 10.63802 | 38024 ft | 447 kts | 307° |
| 2026-05-07 14:24 | 47.44075 | 10.56806 | 38041 ft | 447 kts | 307° |
| 2026-05-07 14:24 | 47.48111 | 10.49804 | 38041 ft | 447 kts | 307° |
| 2026-05-07 14:25 | 47.52117 | 10.42836 | 38040 ft | 448 kts | 307° |
| 2026-05-07 14:25 | 47.56156 | 10.35788 | 38043 ft | 448 kts | 307° |
| 2026-05-07 14:26 | 47.60177 | 10.28761 | 38059 ft | 447 kts | 307° |
| 2026-05-07 14:26 | 47.64191 | 10.21720 | 38064 ft | 447 kts | 307° |
| 2026-05-07 14:27 | 47.68209 | 10.14662 | 38035 ft | 448 kts | 307° |
| 2026-05-07 14:27 | 47.72224 | 10.07593 | 38049 ft | 448 kts | 307° |
| 2026-05-07 14:28 | 47.76237 | 10.00501 | 38043 ft | 448 kts | 307° |
| 2026-05-07 14:28 | 47.80247 | 9.93398 | 38052 ft | 448 kts | 307° |
| 2026-05-07 14:29 | 47.84257 | 9.86272 | 38039 ft | 449 kts | 307° |
| 2026-05-07 14:29 | 47.88269 | 9.79133 | 38040 ft | 449 kts | 307° |
| 2026-05-07 14:30 | 47.92247 | 9.72028 | 38035 ft | 449 kts | 307° |
| 2026-05-07 14:30 | 47.96253 | 9.64855 | 38033 ft | 449 kts | 307° |
| 2026-05-07 14:31 | 48.00250 | 9.57684 | 38023 ft | 449 kts | 307° |
| 2026-05-07 14:31 | 48.04236 | 9.50510 | 38023 ft | 449 kts | 307° |
| 2026-05-07 14:32 | 48.08228 | 9.43308 | 38036 ft | 449 kts | 307° |
| 2026-05-07 14:32 | 48.12210 | 9.36102 | 38058 ft | 449 kts | 307° |
| 2026-05-07 14:33 | 48.16160 | 9.28934 | 38062 ft | 449 kts | 307° |
| 2026-05-07 14:33 | 48.20133 | 9.21705 | 38032 ft | 449 kts | 307° |
| 2026-05-07 14:34 | 48.24097 | 9.14463 | 38038 ft | 449 kts | 307° |
| 2026-05-07 14:34 | 48.28065 | 9.07215 | 38053 ft | 449 kts | 307° |
| 2026-05-07 14:35 | 48.32026 | 8.99943 | 38045 ft | 449 kts | 307° |
| 2026-05-07 14:35 | 48.35982 | 8.92661 | 38043 ft | 450 kts | 307° |
| 2026-05-07 14:36 | 48.39913 | 8.85413 | 38029 ft | 450 kts | 307° |
| 2026-05-07 14:36 | 48.43863 | 8.78109 | 38035 ft | 450 kts | 307° |
| 2026-05-07 14:37 | 48.47812 | 8.70789 | 38034 ft | 450 kts | 307° |
| 2026-05-07 14:37 | 48.53726 | 8.59792 | 38045 ft | 450 kts | 307° |
| 2026-05-07 14:38 | 48.57660 | 8.52447 | 38039 ft | 450 kts | 307° |
| 2026-05-07 14:38 | 48.61563 | 8.45135 | 38042 ft | 450 kts | 307° |
| 2026-05-07 14:39 | 48.65486 | 8.37770 | 38050 ft | 450 kts | 307° |
| 2026-05-07 14:39 | 48.69413 | 8.30391 | 38053 ft | 449 kts | 307° |
| 2026-05-07 14:40 | 48.73335 | 8.22994 | 38058 ft | 450 kts | 306° |
| 2026-05-07 14:40 | 48.77224 | 8.15634 | 38066 ft | 450 kts | 306° |
| 2026-05-07 14:41 | 48.81132 | 8.08222 | 38065 ft | 450 kts | 306° |
| 2026-05-07 14:41 | 48.85043 | 8.00779 | 38053 ft | 450 kts | 306° |
| 2026-05-07 14:42 | 48.88945 | 7.93330 | 38052 ft | 450 kts | 306° |
| 2026-05-07 14:42 | 48.92845 | 7.85865 | 38055 ft | 450 kts | 306° |
| 2026-05-07 14:43 | 48.96734 | 7.78405 | 38048 ft | 450 kts | 306° |
| 2026-05-07 14:43 | 49.00613 | 7.70936 | 38055 ft | 450 kts | 306° |
| 2026-05-07 14:44 | 49.04495 | 7.63448 | 38054 ft | 450 kts | 306° |
| 2026-05-07 14:44 | 49.08371 | 7.55939 | 38060 ft | 450 kts | 306° |
| 2026-05-07 14:45 | 49.12252 | 7.48409 | 38065 ft | 451 kts | 306° |
| 2026-05-07 14:45 | 49.16100 | 7.40928 | 38049 ft | 451 kts | 306° |
| 2026-05-07 14:46 | 49.19969 | 7.33374 | 38060 ft | 451 kts | 306° |
| 2026-05-07 14:46 | 49.23831 | 7.25817 | 38056 ft | 451 kts | 306° |
| 2026-05-07 14:47 | 49.27687 | 7.18237 | 38055 ft | 451 kts | 306° |
| 2026-05-07 14:47 | 49.31550 | 7.10641 | 38052 ft | 451 kts | 306° |
| 2026-05-07 14:48 | 49.35398 | 7.03041 | 38046 ft | 451 kts | 306° |
| 2026-05-07 14:48 | 49.39248 | 6.95423 | 38047 ft | 451 kts | 306° |
| 2026-05-07 14:49 | 49.43084 | 6.87800 | 38075 ft | 450 kts | 306° |
| 2026-05-07 14:49 | 49.46915 | 6.80174 | 38074 ft | 451 kts | 306° |
| 2026-05-07 14:50 | 49.50740 | 6.72538 | 38087 ft | 450 kts | 306° |
| 2026-05-07 14:50 | 49.54525 | 6.64962 | 38078 ft | 448 kts | 306° |
| 2026-05-07 14:51 | 49.58340 | 6.57298 | 38080 ft | 452 kts | 306° |
| 2026-05-07 14:51 | 49.62156 | 6.49616 | 38139 ft | 449 kts | 306° |
| 2026-05-07 14:52 | 49.65939 | 6.41970 | 38108 ft | 448 kts | 306° |
| 2026-05-07 14:52 | 49.69722 | 6.34301 | 38112 ft | 449 kts | 306° |
| 2026-05-07 14:53 | 49.73496 | 6.26629 | 38131 ft | 447 kts | 305° |
| 2026-05-07 14:53 | 49.77262 | 6.18961 | 38115 ft | 448 kts | 305° |
| 2026-05-07 14:54 | 49.81037 | 6.11248 | 38094 ft | 451 kts | 305° |
| 2026-05-07 14:54 | 49.84808 | 6.03522 | 38068 ft | 453 kts | 305° |
| 2026-05-07 14:55 | 49.88600 | 5.95725 | 38056 ft | 453 kts | 305° |
| 2026-05-07 14:55 | 49.92392 | 5.87908 | 38060 ft | 453 kts | 305° |
| 2026-05-07 14:56 | 49.96174 | 5.80086 | 38059 ft | 453 kts | 305° |
| 2026-05-07 14:56 | 49.99311 | 5.73577 | 38059 ft | 453 kts | 305° |
| 2026-05-07 14:57 | 50.03083 | 5.65739 | 38062 ft | 452 kts | 305° |
| 2026-05-07 14:57 | 50.06850 | 5.57886 | 38067 ft | 453 kts | 304° |
| 2026-05-07 14:58 | 50.10616 | 5.49999 | 38063 ft | 454 kts | 304° |
| 2026-05-07 14:58 | 50.14378 | 5.42110 | 38065 ft | 454 kts | 304° |
| 2026-05-07 14:59 | 50.18135 | 5.34203 | 38065 ft | 454 kts | 304° |
| 2026-05-07 14:59 | 50.21888 | 5.26280 | 38067 ft | 454 kts | 304° |
| 2026-05-07 15:00 | 50.25639 | 5.18344 | 38071 ft | 453 kts | 304° |
| 2026-05-07 15:00 | 50.29358 | 5.10448 | 38074 ft | 453 kts | 304° |
| 2026-05-07 15:01 | 50.33094 | 5.02494 | 38079 ft | 454 kts | 304° |
| 2026-05-07 15:01 | 50.36822 | 4.94536 | 38138 ft | 452 kts | 304° |
| 2026-05-07 15:02 | 50.40509 | 4.86636 | 38146 ft | 447 kts | 304° |
| 2026-05-07 15:02 | 50.44195 | 4.78715 | 38160 ft | 450 kts | 304° |
| 2026-05-07 15:03 | 50.47894 | 4.70742 | 38132 ft | 452 kts | 304° |
| 2026-05-07 15:03 | 50.51572 | 4.62796 | 38113 ft | 454 kts | 304° |
| 2026-05-07 15:04 | 50.55275 | 4.54756 | 38094 ft | 453 kts | 304° |
| 2026-05-07 15:04 | 50.58975 | 4.46709 | 38086 ft | 454 kts | 304° |
| 2026-05-07 15:05 | 50.62672 | 4.38648 | 38100 ft | 454 kts | 303° |
| 2026-05-07 15:05 | 50.66362 | 4.30575 | 38101 ft | 454 kts | 303° |
| 2026-05-07 15:06 | 50.70046 | 4.22490 | 38103 ft | 454 kts | 303° |
| 2026-05-07 15:06 | 50.73724 | 4.14388 | 38085 ft | 454 kts | 303° |
| 2026-05-07 15:07 | 50.77402 | 4.06262 | 38089 ft | 454 kts | 303° |
| 2026-05-07 15:07 | 50.81067 | 3.98143 | 38095 ft | 454 kts | 303° |
| 2026-05-07 15:08 | 50.84737 | 3.89987 | 38090 ft | 455 kts | 303° |
| 2026-05-07 15:08 | 50.88383 | 3.81855 | 38087 ft | 455 kts | 303° |
| 2026-05-07 15:09 | 50.92038 | 3.73682 | 38094 ft | 455 kts | 303° |
| 2026-05-07 15:09 | 50.95689 | 3.65489 | 38088 ft | 454 kts | 303° |
| 2026-05-07 15:10 | 50.99336 | 3.57284 | 38080 ft | 454 kts | 303° |
| 2026-05-07 15:10 | 51.02945 | 3.49133 | 38077 ft | 454 kts | 303° |
| 2026-05-07 15:11 | 51.06580 | 3.40901 | 38078 ft | 454 kts | 303° |
| 2026-05-07 15:11 | 51.10206 | 3.32664 | 38078 ft | 454 kts | 303° |
| 2026-05-07 15:12 | 51.13826 | 3.24409 | 38079 ft | 455 kts | 303° |
| 2026-05-07 15:12 | 51.17440 | 3.16136 | 38080 ft | 455 kts | 303° |
| 2026-05-07 15:13 | 51.21049 | 3.07865 | 38082 ft | 455 kts | 303° |
| 2026-05-07 15:13 | 51.24652 | 2.99575 | 38082 ft | 454 kts | 303° |
| 2026-05-07 15:14 | 51.28245 | 2.91277 | 38083 ft | 454 kts | 303° |
| 2026-05-07 15:14 | 51.31816 | 2.83010 | 38087 ft | 455 kts | 303° |
| 2026-05-07 15:15 | 51.35078 | 2.74376 | 38075 ft | 452 kts | 290° |
| 2026-05-07 15:15 | 51.36584 | 2.64659 | 38082 ft | 450 kts | 279° |
| 2026-05-07 15:16 | 51.37750 | 2.54808 | 38078 ft | 450 kts | 279° |
| 2026-05-07 15:16 | 51.38939 | 2.44973 | 38085 ft | 450 kts | 279° |
| 2026-05-07 15:17 | 51.40129 | 2.35126 | 38088 ft | 449 kts | 279° |
| 2026-05-07 15:17 | 51.41308 | 2.25300 | 38078 ft | 449 kts | 279° |
| 2026-05-07 15:18 | 51.42509 | 2.15468 | 38079 ft | 449 kts | 279° |
| 2026-05-07 15:18 | 51.43703 | 2.05643 | 38081 ft | 449 kts | 279° |
| 2026-05-07 15:19 | 51.44883 | 1.95862 | 38084 ft | 449 kts | 279° |
| 2026-05-07 15:19 | 51.46041 | 1.86009 | 38068 ft | 449 kts | 279° |
| 2026-05-07 15:20 | 51.47183 | 1.76151 | 38068 ft | 449 kts | 279° |
| 2026-05-07 15:20 | 51.48311 | 1.66286 | 38088 ft | 449 kts | 279° |
| 2026-05-07 15:21 | 51.49435 | 1.56421 | 38077 ft | 449 kts | 279° |
| 2026-05-07 15:21 | 51.50550 | 1.46606 | 38074 ft | 442 kts | 278° |
| 2026-05-07 15:22 | 51.51649 | 1.36861 | 38087 ft | 448 kts | 278° |
| 2026-05-07 15:22 | 51.52752 | 1.26985 | 38071 ft | 449 kts | 278° |
| 2026-05-07 15:23 | 51.53844 | 1.17110 | 38070 ft | 449 kts | 278° |
| 2026-05-07 15:23 | 51.54926 | 1.07232 | 38076 ft | 449 kts | 278° |
| 2026-05-07 15:24 | 51.56002 | 0.97360 | 38079 ft | 445 kts | 278° |
| 2026-05-07 15:24 | 51.57047 | 0.87685 | 38104 ft | 445 kts | 278° |
| 2026-05-07 15:25 | 51.58104 | 0.77788 | 38136 ft | 450 kts | 278° |
| 2026-05-07 15:25 | 51.59157 | 0.67866 | 38142 ft | 450 kts | 278° |
| 2026-05-07 15:26 | 51.59679 | 0.62929 | 38002 ft | 445 kts | 278° |
| 2026-05-07 15:26 | 51.60194 | 0.58006 | 37684 ft | 447 kts | 278° |
| 2026-05-07 15:26 | 51.60709 | 0.53074 | 37440 ft | 447 kts | 278° |
| 2026-05-07 15:26 | 51.61225 | 0.48129 | 37197 ft | 447 kts | 278° |
| 2026-05-07 15:27 | 51.61736 | 0.43200 | 36939 ft | 447 kts | 278° |
| 2026-05-07 15:27 | 51.62245 | 0.38271 | 36709 ft | 447 kts | 278° |
| 2026-05-07 15:27 | 51.62752 | 0.33340 | 36465 ft | 446 kts | 278° |
| 2026-05-07 15:27 | 51.63257 | 0.28417 | 36135 ft | 444 kts | 278° |
| 2026-05-07 15:28 | 51.63757 | 0.23533 | 35445 ft | 441 kts | 278° |
| 2026-05-07 15:28 | 51.64256 | 0.18663 | 34588 ft | 441 kts | 278° |
| 2026-05-07 15:28 | 51.65022 | 0.13883 | 33633 ft | 443 kts | 288° |
| 2026-05-07 15:28 | 51.66191 | 0.09297 | 32644 ft | 444 kts | 292° |
| 2026-05-07 15:29 | 51.67486 | 0.04775 | 31693 ft | 445 kts | 293° |
| 2026-05-07 15:29 | 51.68788 | 0.00248 | 30696 ft | 447 kts | 293° |
| 2026-05-07 15:29 | 51.70071 | -0.04266 | 29575 ft | 449 kts | 292° |
| 2026-05-07 15:29 | 51.71359 | -0.08850 | 28553 ft | 445 kts | 292° |
| 2026-05-07 15:30 | 51.72622 | -0.13373 | 27426 ft | 442 kts | 292° |
| 2026-05-07 15:30 | 51.73882 | -0.17892 | 26218 ft | 442 kts | 292° |
| 2026-05-07 15:30 | 51.75044 | -0.21929 | 25406 ft | 458 kts | 296° |
| 2026-05-07 15:30 | 51.76932 | -0.26125 | 25017 ft | 469 kts | 311° |
| 2026-05-07 15:31 | 51.79316 | -0.29354 | 24804 ft | 471 kts | 321° |
| 2026-05-07 15:31 | 51.81890 | -0.32387 | 24565 ft | 445 kts | 322° |
| 2026-05-07 15:31 | 51.84314 | -0.35274 | 24366 ft | 421 kts | 321° |
| 2026-05-07 15:31 | 51.86608 | -0.38047 | 24169 ft | 401 kts | 321° |
| 2026-05-07 15:32 | 51.88784 | -0.40702 | 24007 ft | 383 kts | 321° |
| 2026-05-07 15:32 | 51.90865 | -0.43249 | 23808 ft | 367 kts | 320° |
| 2026-05-07 15:32 | 51.92856 | -0.45694 | 23637 ft | 352 kts | 320° |
| 2026-05-07 15:32 | 51.94790 | -0.48075 | 23432 ft | 348 kts | 320° |
| 2026-05-07 15:33 | 51.96714 | -0.50449 | 23216 ft | 347 kts | 320° |
| 2026-05-07 15:33 | 51.98615 | -0.52794 | 23007 ft | 346 kts | 320° |
| 2026-05-07 15:33 | 52.00528 | -0.55156 | 22781 ft | 345 kts | 320° |
| 2026-05-07 15:33 | 52.02436 | -0.57511 | 22480 ft | 342 kts | 320° |
| 2026-05-07 15:34 | 52.04319 | -0.59838 | 22081 ft | 338 kts | 320° |
| 2026-05-07 15:34 | 52.06182 | -0.62148 | 21619 ft | 336 kts | 320° |
| 2026-05-07 15:34 | 52.07794 | -0.64841 | 20837 ft | 330 kts | 301° |
| 2026-05-07 15:34 | 52.08845 | -0.68124 | 20132 ft | 325 kts | 292° |
| 2026-05-07 15:35 | 52.09740 | -0.71477 | 19653 ft | 320 kts | 291° |
| 2026-05-07 15:35 | 52.10619 | -0.74762 | 19257 ft | 315 kts | 291° |
| 2026-05-07 15:35 | 52.11507 | -0.78029 | 18894 ft | 316 kts | 292° |
| 2026-05-07 15:35 | 52.12404 | -0.81290 | 18538 ft | 316 kts | 292° |
| 2026-05-07 15:36 | 52.13304 | -0.84548 | 18159 ft | 315 kts | 292° |
| 2026-05-07 15:36 | 52.14203 | -0.87794 | 17767 ft | 315 kts | 292° |
| 2026-05-07 15:36 | 52.15105 | -0.91050 | 17366 ft | 316 kts | 292° |
| 2026-05-07 15:36 | 52.15998 | -0.94275 | 16966 ft | 317 kts | 292° |
| 2026-05-07 15:37 | 52.16906 | -0.97554 | 16563 ft | 318 kts | 292° |
| 2026-05-07 15:37 | 52.17816 | -1.00844 | 16216 ft | 318 kts | 292° |
| 2026-05-07 15:37 | 52.18726 | -1.04142 | 15856 ft | 318 kts | 292° |
| 2026-05-07 15:37 | 52.19631 | -1.07429 | 15495 ft | 318 kts | 292° |
| 2026-05-07 15:38 | 52.20538 | -1.10728 | 15143 ft | 319 kts | 292° |
| 2026-05-07 15:38 | 52.21446 | -1.14028 | 14786 ft | 319 kts | 292° |
| 2026-05-07 15:38 | 52.22353 | -1.17330 | 14430 ft | 319 kts | 292° |
| 2026-05-07 15:38 | 52.23261 | -1.20638 | 14080 ft | 319 kts | 291° |
| 2026-05-07 15:39 | 52.24166 | -1.23947 | 13711 ft | 320 kts | 291° |
| 2026-05-07 15:39 | 52.25071 | -1.27264 | 13324 ft | 320 kts | 291° |
| 2026-05-07 15:39 | 52.25976 | -1.30579 | 12957 ft | 319 kts | 291° |
| 2026-05-07 15:39 | 52.26779 | -1.33525 | 12637 ft | 318 kts | 291° |
| 2026-05-07 16:53 | 52.27000 | -1.34335 | 12507 ft | 318 kts | 291° |
| 2026-05-07 16:53 | 52.27898 | -1.37636 | 12154 ft | 317 kts | 291° |
| 2026-05-07 16:53 | 52.28791 | -1.40922 | 11799 ft | 316 kts | 291° |
| 2026-05-07 16:53 | 52.29681 | -1.44202 | 11444 ft | 315 kts | 291° |
| 2026-05-07 16:54 | 52.30554 | -1.47418 | 11098 ft | 310 kts | 291° |
| 2026-05-07 16:54 | 52.31417 | -1.50610 | 10759 ft | 304 kts | 291° |
| 2026-05-07 16:54 | 52.32258 | -1.53739 | 10414 ft | 298 kts | 291° |
| 2026-05-07 16:54 | 52.33078 | -1.56815 | 10100 ft | 292 kts | 291° |
| 2026-05-07 16:55 | 52.33887 | -1.59828 | 9760 ft | 286 kts | 291° |
| 2026-05-07 16:55 | 52.34687 | -1.62800 | 9403 ft | 286 kts | 291° |
| 2026-05-07 16:55 | 52.35483 | -1.65778 | 9051 ft | 285 kts | 289° |
| 2026-05-07 16:55 | 52.36046 | -1.68872 | 8736 ft | 282 kts | 281° |
| 2026-05-07 16:56 | 52.36475 | -1.71997 | 8449 ft | 280 kts | 281° |
| 2026-05-07 16:56 | 52.36904 | -1.75105 | 8185 ft | 279 kts | 281° |
| 2026-05-07 16:56 | 52.37799 | -1.81221 | 7635 ft | 275 kts | 288° |
| 2026-05-07 16:57 | 52.38817 | -1.83856 | 7371 ft | 278 kts | 312° |
| 2026-05-07 16:57 | 52.40248 | -1.85911 | 7128 ft | 277 kts | 319° |
| 2026-05-07 16:57 | 52.41756 | -1.87866 | 6863 ft | 275 kts | 320° |
| 2026-05-07 16:57 | 52.43243 | -1.89772 | 6381 ft | 270 kts | 320° |
| 2026-05-07 16:58 | 52.44719 | -1.91671 | 5771 ft | 269 kts | 320° |
| 2026-05-07 16:58 | 52.46183 | -1.93580 | 5166 ft | 269 kts | 320° |
| 2026-05-07 16:58 | 52.47643 | -1.95483 | 4564 ft | 268 kts | 320° |
| 2026-05-07 16:58 | 52.49102 | -1.97387 | 3977 ft | 267 kts | 320° |
| 2026-05-07 16:59 | 52.50528 | -1.99263 | 3713 ft | 258 kts | 320° |
| 2026-05-07 16:59 | 52.51973 | -2.00901 | 3584 ft | 249 kts | 334° |
| 2026-05-07 16:59 | 52.53615 | -2.01523 | 3478 ft | 238 kts | 359° |
| 2026-05-07 16:59 | 52.55190 | -2.01036 | 3387 ft | 225 kts | 24° |
| 2026-05-07 17:00 | 52.56445 | -1.99671 | 3309 ft | 210 kts | 48° |
| 2026-05-07 17:00 | 52.57242 | -1.97772 | 3246 ft | 198 kts | 69° |
| 2026-05-07 17:00 | 52.57665 | -1.95644 | 3189 ft | 195 kts | 78° |
| 2026-05-07 17:00 | 52.58021 | -1.93570 | 3111 ft | 182 kts | 77° |
| 2026-05-07 17:01 | 52.58348 | -1.91601 | 3067 ft | 176 kts | 80° |
| 2026-05-07 17:01 | 52.58261 | -1.89692 | 3049 ft | 170 kts | 118° |
| 2026-05-07 17:01 | 52.57492 | -1.88320 | 2993 ft | 153 kts | 142° |
| 2026-05-07 17:01 | 52.56697 | -1.87427 | 2828 ft | 128 kts | 146° |
| 2026-05-07 17:02 | 52.55993 | -1.86641 | 2656 ft | 118 kts | 147° |
| 2026-05-07 17:02 | 52.55318 | -1.85887 | 2516 ft | 117 kts | 146° |
| 2026-05-07 17:02 | 52.54647 | -1.85137 | 2349 ft | 118 kts | 146° |
| 2026-05-07 17:02 | 52.53969 | -1.84378 | 2189 ft | 117 kts | 146° |
| 2026-05-07 17:03 | 52.53295 | -1.83626 | 2032 ft | 117 kts | 147° |
| 2026-05-07 17:03 | 52.52628 | -1.82880 | 1878 ft | 115 kts | 147° |
| 2026-05-07 17:03 | 52.51961 | -1.82135 | 1733 ft | 116 kts | 147° |
| 2026-05-07 17:03 | 52.51301 | -1.81398 | 1566 ft | 114 kts | 146° |
| 2026-05-07 17:04 | 52.50643 | -1.80663 | 1402 ft | 116 kts | 146° |
| 2026-05-07 17:04 | 52.49984 | -1.79927 | 1242 ft | 116 kts | 146° |
| 2026-05-07 17:04 | 52.49317 | -1.79168 | 1089 ft | 114 kts | 146° |
| 2026-05-07 17:04 | 52.48650 | -1.78445 | 907 ft | 115 kts | 147° |
| 2026-05-07 17:05 | 52.48003 | -1.77719 | 748 ft | 114 kts | 144° |
| 2026-05-07 17:05 | 52.47344 | -1.76984 | 588 ft | 114 kts | 144° |
| 2026-05-07 17:05 | 52.46686 | -1.76249 | 412 ft | 115 kts | 143° |
| 2026-05-07 17:05 | 52.46027 | -1.75513 | 317 ft | 106 kts | 143° |
| 2026-05-07 17:06 | 52.45561 | -1.74996 | 329 ft | 52 kts | 144° |
| 2026-05-07 17:06 | 52.45358 | -1.74768 | 330 ft | 24 kts | 146° |
| 2026-05-07 17:06 | 52.45210 | -1.74608 | 332 ft | 27 kts | 146° |
| 2026-05-07 17:06 | 52.45062 | -1.74441 | 332 ft | 24 kts | 145° |
| 2026-05-07 17:07 | 52.44965 | -1.74332 | 331 ft | 10 kts | 143° |
| 2026-05-07 17:07 | 52.44951 | -1.74215 | 332 ft | 13 kts | 77° |
| 2026-05-07 17:07 | 52.44975 | -1.74050 | 331 ft | 16 kts | 77° |
| 2026-05-07 17:07 | 52.45008 | -1.73900 | 327 ft | 15 kts | 56° |
| 2026-05-07 17:08 | 52.45052 | -1.73798 | 327 ft | 7 kts | 55° |
| 2026-05-07 17:08 | 52.45043 | -1.73738 | 328 ft | 7 kts | 149° |
| 2026-05-07 17:08 | 52.44984 | -1.73686 | 327 ft | 12 kts | 147° |
| 2026-05-07 17:08 | 52.44912 | -1.73593 | 328 ft | 12 kts | 112° |
| 2026-05-07 17:09 | 52.44915 | -1.73473 | 328 ft | 9 kts | 58° |
| 2026-05-07 17:09 | 52.44949 | -1.73398 | 329 ft | 5 kts | 28° |
| 2026-05-07 17:09 | 52.44981 | -1.73417 | 328 ft | 4 kts | 326° |
| 2026-05-07 17:09 | 52.44992 | -1.73429 | 326 ft | 0 kts | 326° |